Time;durP1;ratioP1;P1;durP2;ratioP2;P2;SDS_P1;SDS_P2;PMS_P1;PMS_P2;Temp;Humidity;BMP_temperature;BMP_pressure;BME280_temperature;BME280_humidity;BME280_pressure;Samples;Min_cycle;Max_cycle;Signal;HPM_P1;HPM_P2
2022/08/01 00:03:14;;;;;;;;;4.00;2.33;;;;;23.36;66.73;101051.75;4949798;28;45456;-83
2022/08/01 00:05:41;;;;;;;;;2.00;2.00;;;;;23.33;67.01;101046.47;4948362;28;45433;-82
2022/08/01 00:08:07;;;;;;;;;1.33;1.33;;;;;23.38;66.43;101056.28;4949149;28;45666;-82
2022/08/01 00:10:32;;;;;;;;;2.00;2.00;;;;;23.35;66.62;101051.84;4950256;28;45468;-82
2022/08/01 00:12:58;;;;;;;;;1.00;1.00;;;;;23.40;67.00;101070.69;4964477;28;45377;-81
2022/08/01 00:15:23;;;;;;;;;2.00;2.00;;;;;23.21;66.80;101035.09;4947037;28;45485;-82
2022/08/01 00:17:49;;;;;;;;;2.00;2.00;;;;;23.29;66.75;101047.50;4948514;28;44823;-82
2022/08/01 00:20:14;;;;;;;;;5.00;2.67;;;;;23.37;66.97;101055.38;4947631;28;45467;-82
2022/08/01 00:22:43;;;;;;;;;2.00;2.00;;;;;23.46;66.62;101071.34;4947363;28;45601;-83
2022/08/01 00:25:09;;;;;;;;;1.33;1.33;;;;;23.29;66.64;101036.66;4947582;28;45432;-83
2022/08/01 00:27:34;;;;;;;;;3.67;3.00;;;;;23.35;66.57;101047.28;4948986;28;45392;-83
2022/08/01 00:30:00;;;;;;;;;1.00;1.00;;;;;23.31;66.80;101036.59;4947326;28;46860;-83
2022/08/01 00:32:25;;;;;;;;;2.33;2.33;;;;;23.40;66.46;101048.97;4947337;28;45453;-83
2022/08/01 00:34:51;;;;;;;;;3.00;3.00;;;;;23.41;66.86;101050.72;4950114;28;45282;-83
2022/08/01 00:37:16;;;;;;;;;1.25;1.25;;;;;23.26;67.01;101031.31;4948766;28;45380;-83
2022/08/01 00:39:42;;;;;;;;;2.00;2.00;;;;;23.36;66.90;101051.75;4945798;28;45447;-82
2022/08/01 00:42:09;;;;;;;;;1.33;1.33;;;;;23.36;67.24;101053.59;4948238;28;45433;-83
2022/08/01 00:44:35;;;;;;;;;2.67;2.67;;;;;23.31;67.60;101048.34;4947548;28;45440;-82
2022/08/01 00:47:01;;;;;;;;;2.00;2.00;;;;;23.25;67.41;101045.84;4948883;28;44791;-83
2022/08/01 00:49:27;;;;;;;;;3.33;2.00;;;;;23.23;67.47;101053.13;4947553;28;45569;-82
2022/08/01 00:51:52;;;;;;;;;1.00;1.00;;;;;23.10;67.87;101033.66;4948996;28;44818;-82
2022/08/01 00:54:18;;;;;;;;;1.00;1.00;;;;;23.09;68.21;101036.44;4949475;28;45428;-83
2022/08/01 00:56:44;;;;;;;;;2.00;2.00;;;;;23.07;67.91;101041.03;4963832;28;45571;-81
2022/08/01 00:59:51;;;;;;;;;2.33;2.33;;;;;23.13;67.77;101046.25;4945946;28;45414;-81
2022/08/01 01:02:17;;;;;;;;;3.67;2.00;;;;;22.84;67.90;101004.63;4962348;28;45370;-82
2022/08/01 01:04:43;;;;;;;;;3.00;2.67;;;;;23.03;68.50;101031.22;4947774;28;45319;-82
2022/08/01 01:07:36;;;;;;;;;2.00;2.00;;;;;22.95;68.05;101028.72;4947241;28;45474;-82
2022/08/01 01:10:20;;;;;;;;;3.00;2.00;;;;;23.05;68.29;101049.22;4946293;28;47378;-82
2022/08/01 01:12:56;;;;;;;;;2.00;2.00;;;;;23.03;68.16;101048.38;4952766;28;46035;-82
2022/08/01 01:15:40;;;;;;;;;2.00;2.00;;;;;22.98;68.64;101039.44;4966860;28;45514;-83
2022/08/01 01:18:11;;;;;;;;;1.00;1.00;;;;;23.04;68.49;101046.53;4968121;28;45533;-82
2022/08/01 01:20:49;;;;;;;;;3.00;2.67;;;;;23.02;68.66;101043.00;4970772;28;45343;-83
2022/08/01 01:23:51;;;;;;;;;2.00;2.00;;;;;23.05;68.68;101038.34;4970812;28;44775;-82
2022/08/01 01:26:31;;;;;;;;;3.00;3.00;;;;;23.02;68.33;101038.44;4949446;28;45907;-82
2022/08/01 01:29:19;;;;;;;;;1.67;1.67;;;;;23.04;68.96;101046.53;4950678;28;45661;-82
2022/08/01 01:31:51;;;;;;;;;2.33;2.33;;;;;23.00;69.39;101044.84;4966498;28;46858;-82
2022/08/01 01:34:19;;;;;;;;;1.33;1.33;;;;;23.01;69.17;101050.22;4951100;28;45393;-82
2022/08/01 01:36:47;;;;;;;;;2.67;2.67;;;;;22.94;69.49;101038.66;4951573;28;45487;-84
2022/08/01 01:39:14;;;;;;;;;2.67;2.67;;;;;22.97;69.76;101052.13;4950826;28;45305;-83
2022/08/01 01:41:42;;;;;;;;;1.67;1.67;;;;;22.96;69.89;101042.19;4949982;28;45508;-82
2022/08/01 01:44:10;;;;;;;;;1.00;1.00;;;;;22.96;70.04;101049.47;4965793;28;45409;-82
2022/08/01 01:46:36;;;;;;;;;2.00;2.00;;;;;22.88;70.41;101033.44;4950873;28;45305;-83
2022/08/01 01:49:03;;;;;;;;;2.33;2.33;;;;;22.95;70.50;101048.59;4950861;28;45292;-82
2022/08/01 01:51:29;;;;;;;;;3.33;2.67;;;;;22.94;70.36;101040.50;4949892;28;47657;-82
2022/08/01 01:53:55;;;;;;;;;1.67;1.67;;;;;22.89;70.80;101040.66;4951392;28;45422;-83
2022/08/01 01:56:22;;;;;;;;;2.00;2.00;;;;;22.90;70.83;101039.69;4951356;28;45504;-81
2022/08/01 01:58:56;;;;;;;;;2.00;2.00;;;;;22.87;70.54;101034.38;4950785;28;45354;-82
2022/08/01 02:01:25;;;;;;;;;1.00;1.00;;;;;22.94;70.92;101035.94;4951748;28;45790;-82
2022/08/01 02:03:53;;;;;;;;;1.67;1.67;;;;;22.95;70.55;101032.31;4952069;28;45425;-83
2022/08/01 02:06:20;;;;;;;;;1.33;1.33;;;;;23.02;70.49;101032.13;4950367;28;45449;-82
2022/08/01 02:08:47;;;;;;;;;2.33;1.00;;;;;23.05;70.34;101027.50;4949946;28;45422;-82
2022/08/01 02:11:51;;;;;;;;;2.00;2.00;;;;;23.09;70.35;101034.59;4950490;28;45397;-81
2022/08/01 02:14:19;;;;;;;;;2.00;2.00;;;;;23.05;70.58;101026.63;4952179;28;45351;-82
2022/08/01 02:16:48;;;;;;;;;2.00;2.00;;;;;23.11;70.00;101034.56;4968015;28;45513;-82
2022/08/01 02:19:16;;;;;;;;;2.00;2.00;;;;;23.08;70.61;101030.09;4967975;28;45526;-82
2022/08/01 02:21:57;;;;;;;;;2.00;2.00;;;;;23.12;70.76;101028.19;4951583;28;46709;-82
2022/08/01 02:24:38;;;;;;;;;2.33;2.33;;;;;23.11;71.52;101031.84;4951315;28;46451;-82
2022/08/01 02:27:20;;;;;;;;;2.25;2.25;;;;;23.09;70.90;101034.59;4952869;28;45429;-83
2022/08/01 02:30:01;;;;;;;;;2.00;2.00;;;;;23.08;70.66;101038.25;4968155;28;45526;-83
2022/08/01 02:32:31;;;;;;;;;3.00;2.00;;;;;23.09;70.76;101034.59;4967829;28;47933;-82
2022/08/01 02:35:03;;;;;;;;;2.25;1.50;;;;;23.06;70.90;101022.97;4951834;28;44793;-82
2022/08/01 02:37:33;;;;;;;;;3.50;3.50;;;;;23.06;71.25;101031.09;4967421;28;45587;-83
2022/08/01 02:40:00;;;;;;;;;2.50;1.50;;;;;23.02;71.08;101046.56;4951487;28;45467;-82
2022/08/01 02:42:29;;;;;;;;;2.33;2.33;;;;;22.99;71.68;101032.22;4967282;28;47664;-83
2022/08/01 02:44:57;;;;;;;;;1.67;1.67;;;;;23.02;72.21;101035.72;4966558;28;45381;-83
2022/08/01 02:47:25;;;;;;;;;2.00;1.00;;;;;23.04;72.22;101038.41;4952054;28;45431;-83
2022/08/01 02:49:52;;;;;;;;;3.00;3.00;;;;;23.08;72.11;101042.78;4949785;28;44920;-83
2022/08/01 02:52:20;;;;;;;;;2.00;2.00;;;;;23.10;72.54;101035.47;4949329;28;46971;-83
2022/08/01 02:54:49;;;;;;;;;2.00;2.00;;;;;23.08;72.16;101029.22;4964113;28;45407;-83
2022/08/01 02:57:18;;;;;;;;;1.00;1.00;;;;;23.08;72.40;101026.50;4964774;28;44860;-83
2022/08/01 02:59:45;;;;;;;;;1.33;1.33;;;;;23.12;72.44;101033.59;4950810;28;44779;-83
2022/08/01 03:02:13;;;;;;;;;2.00;1.00;;;;;23.11;72.04;101037.28;4951454;28;45441;-83
2022/08/01 03:04:41;;;;;;;;;2.00;2.00;;;;;23.13;72.56;101040.81;4950192;28;45470;-83
2022/08/01 03:10:53;;;;;;;;;1.00;1.00;;;;;23.09;72.08;101036.44;4859108;29;45715;-83
2022/08/01 03:13:21;;;;;;;;;1.67;1.67;;;;;23.02;72.92;101013.16;4853609;29;45444;-83
2022/08/01 03:15:55;;;;;;;;;1.33;1.33;;;;;23.03;72.61;101015.81;4854094;29;44857;-83
2022/08/01 03:18:22;;;;;;;;;2.00;2.00;;;;;23.03;73.01;101020.38;4853947;29;44928;-83
2022/08/01 03:20:49;;;;;;;;;2.00;2.00;;;;;23.13;72.75;101033.56;4854389;29;45599;-82
2022/08/01 03:23:16;;;;;;;;;1.00;1.00;;;;;23.11;73.49;101034.56;4868972;29;45791;-83
2022/08/01 03:25:44;;;;;;;;;3.67;1.00;;;;;22.94;73.58;100997.97;4871325;29;45526;-82
2022/08/01 03:28:15;;;;;;;;;1.67;1.67;;;;;23.16;73.39;101044.28;4872556;29;45613;-83
2022/08/01 03:30:49;;;;;;;;;2.00;2.00;;;;;23.13;73.25;101035.41;4872671;29;45445;-83
2022/08/01 03:33:18;;;;;;;;;2.00;2.00;;;;;23.12;73.42;101039.91;4841175;29;46023;-83
2022/08/01 03:35:48;;;;;;;;;1.00;1.00;;;;;22.96;73.50;101006.06;4857600;29;44882;-82
2022/08/01 03:38:19;;;;;;;;;1.00;1.00;;;;;23.09;73.51;101028.31;4857444;29;45427;-83
2022/08/01 03:40:51;;;;;;;;;1.00;1.00;;;;;23.12;74.44;101028.19;4871921;29;45798;-82
2022/08/01 03:43:22;;;;;;;;;1.33;1.33;;;;;23.06;74.62;101020.25;4873254;29;45416;-82
2022/08/01 03:45:51;;;;;;;;;2.33;2.00;;;;;22.85;74.45;100984.72;4862357;28;45470;-82
2022/08/01 03:48:19;;;;;;;;;1.00;1.00;;;;;22.87;74.68;100991.00;4950397;28;45484;-82
2022/08/01 03:50:51;;;;;;;;;1.67;1.67;;;;;23.12;74.44;101039.03;4950718;28;45388;-83
2022/08/01 03:53:22;;;;;;;;;1.00;1.00;;;;;23.07;74.81;101024.75;4951061;28;45479;-83
2022/08/01 03:55:50;;;;;;;;;2.00;2.00;;;;;23.09;75.41;101045.44;4965894;28;45392;-82
2022/08/01 03:58:17;;;;;;;;;3.00;2.00;;;;;22.93;75.28;101000.75;4966079;28;45831;-83
2022/08/01 04:00:43;;;;;;;;;2.67;1.00;;;;;22.98;75.73;101023.16;4950449;28;45476;-82
2022/08/01 04:03:11;;;;;;;;;2.00;2.00;;;;;23.06;75.31;101028.38;4964012;28;47536;-82
2022/08/01 04:05:40;;;;;;;;;1.00;1.00;;;;;23.07;76.08;101035.59;4950494;28;45440;-83
2022/08/01 04:08:05;;;;;;;;;2.00;1.00;;;;;23.01;75.33;101020.38;4950923;28;45487;-82
2022/08/01 04:10:31;;;;;;;;;1.00;1.00;;;;;22.93;75.85;101006.19;4965336;28;45607;-83
2022/08/01 04:12:57;;;;;;;;;3.33;2.33;;;;;23.15;75.50;101036.22;4950181;28;45411;-82
2022/08/01 04:15:23;;;;;;;;;2.00;2.00;;;;;23.12;75.87;101028.19;4948753;28;45516;-83
2022/08/01 04:17:49;;;;;;;;;2.00;2.00;;;;;23.08;75.97;101015.66;4965133;28;45498;-81
2022/08/01 04:20:15;;;;;;;;;2.00;2.00;;;;;23.08;76.22;101021.09;4949489;28;45490;-83
2022/08/01 04:22:41;;;;;;;;;1.00;1.00;;;;;23.14;76.31;101029.00;4948523;28;48039;-83
2022/08/01 04:25:23;;;;;;;;;0.33;0.33;;;;;23.15;76.28;101028.09;4948087;28;45270;-82
2022/08/01 04:27:52;;;;;;;;;1.00;1.00;;;;;23.03;75.73;101006.81;4948907;28;45499;-83
2022/08/01 04:30:30;;;;;;;;;3.00;3.00;;;;;23.15;76.05;101022.66;4948603;28;45936;-83
2022/08/01 04:32:58;;;;;;;;;1.33;1.33;;;;;23.13;76.19;101013.69;4948426;28;47771;-82
2022/08/01 04:35:26;;;;;;;;;1.00;1.00;;;;;23.14;76.30;101015.44;4948183;28;45488;-83
2022/08/01 04:37:53;;;;;;;;;2.67;2.67;;;;;23.08;76.01;101013.81;4963782;28;45868;-82
2022/08/01 04:40:23;;;;;;;;;2.00;2.00;;;;;23.10;76.27;101019.19;4948931;28;45351;-83
2022/08/01 04:42:50;;;;;;;;;2.00;1.00;;;;;23.10;77.03;101019.19;4947083;28;45867;-83
2022/08/01 04:45:16;;;;;;;;;1.00;1.00;;;;;23.06;76.91;101014.81;4947567;28;45811;-83
2022/08/01 04:47:43;;;;;;;;;1.00;1.00;;;;;23.08;76.65;101018.38;4948463;28;45310;-83
2022/08/01 04:50:12;;;;;;;;;1.33;1.33;;;;;23.07;77.08;101017.50;4948549;28;45442;-83
2022/08/01 04:52:41;;;;;;;;;2.00;2.00;;;;;23.08;76.36;101031.94;4952395;28;45368;-83
2022/08/01 04:55:09;;;;;;;;;1.00;1.00;;;;;23.07;76.24;101030.19;4953008;28;45493;-83
2022/08/01 04:57:37;;;;;;;;;1.00;1.00;;;;;23.04;76.97;101035.69;4952275;28;45477;-83
2022/08/01 05:00:04;;;;;;;;;1.33;1.33;;;;;23.00;76.26;101023.13;4953136;28;45379;-82
2022/08/01 05:02:30;;;;;;;;;2.00;1.00;;;;;23.03;77.01;101039.34;4952580;28;48393;-82
2022/08/01 05:04:56;;;;;;;;;1.00;1.00;;;;;22.99;75.95;101037.66;4968398;28;45436;-82
2022/08/01 05:07:21;;;;;;;;;2.67;2.67;;;;;23.03;76.25;101042.06;4953573;28;45405;-82
2022/08/01 05:09:50;;;;;;;;;1.67;1.33;;;;;23.09;76.20;101050.00;4969003;28;44774;-82
2022/08/01 05:12:17;;;;;;;;;2.00;1.00;;;;;22.94;75.73;101022.38;4968049;28;47104;-83
2022/08/01 05:14:43;;;;;;;;;2.00;2.00;;;;;23.14;76.00;101048.88;4956055;28;45468;-82
2022/08/01 05:17:10;;;;;;;;;1.00;1.00;;;;;23.05;75.73;101035.66;4971445;28;44909;-83
2022/08/01 05:19:39;;;;;;;;;0.67;0.67;;;;;23.10;75.72;101057.19;4970211;28;45134;-83
2022/08/01 05:22:07;;;;;;;;;3.00;1.33;;;;;23.14;76.33;101057.03;4971236;28;45438;-83
2022/08/01 05:24:35;;;;;;;;;1.67;1.33;;;;;23.03;75.95;101050.22;4972210;28;45508;-83
2022/08/01 05:27:01;;;;;;;;;1.33;1.33;;;;;23.08;76.02;101043.66;4972671;28;45776;-82
2022/08/01 05:29:27;;;;;;;;;2.33;2.33;;;;;23.17;76.04;101047.91;4970261;28;45406;-82
2022/08/01 05:31:55;;;;;;;;;1.00;1.00;;;;;23.20;75.67;101058.66;4969719;28;46664;-82
2022/08/01 05:34:20;;;;;;;;;1.00;1.00;;;;;23.24;75.02;101054.91;4954993;28;45830;-82
2022/08/01 05:36:47;;;;;;;;;1.67;1.00;;;;;23.28;74.66;101051.13;4970225;28;45484;-83
2022/08/01 05:42:35;;;;;;;;;1.33;1.33;;;;;23.34;74.31;101060.91;4972647;28;45486;-83
2022/08/01 05:45:01;;;;;;;;;1.00;1.00;;;;;23.36;73.86;101061.75;4972503;28;45449;-82
2022/08/01 05:47:27;;;;;;;;;3.00;2.00;;;;;23.36;73.56;101065.34;4972217;28;45531;-81
2022/08/01 05:49:52;;;;;;;;;2.00;2.00;;;;;23.34;73.57;101061.78;4973216;28;45534;-82
2022/08/01 05:52:17;;;;;;;;;3.00;3.00;;;;;23.31;73.79;101061.91;4970941;28;47132;-81
2022/08/01 05:54:43;;;;;;;;;1.33;1.33;;;;;23.34;73.04;101063.63;4972741;28;44913;-82
2022/08/01 05:57:08;;;;;;;;;2.00;2.00;;;;;23.38;73.95;101077.97;4972472;28;45416;-82
2022/08/01 05:59:38;;;;;;;;;2.00;2.00;;;;;23.40;73.14;101071.56;4973567;28;44764;-83
2022/08/01 06:02:04;;;;;;;;;2.00;2.00;;;;;23.40;72.97;101073.38;4973029;28;45427;-83
2022/08/01 06:04:29;;;;;;;;;13.33;11.33;;;;;23.40;72.59;101062.53;4970222;28;45412;-83
2022/08/01 06:06:56;;;;;;;;;2.00;2.00;;;;;23.39;72.23;101058.03;4968809;28;45332;-83
2022/08/01 06:09:21;;;;;;;;;2.67;2.67;;;;;23.45;72.22;101066.88;4967080;28;44904;-83
2022/08/01 06:11:47;;;;;;;;;1.00;1.00;;;;;23.43;72.23;101065.13;4967763;28;46619;-84
2022/08/01 06:14:12;;;;;;;;;2.00;2.00;;;;;23.38;72.42;101056.28;4969091;28;45370;-86
2022/08/01 06:16:38;;;;;;;;;2.00;2.00;;;;;23.41;72.21;101067.91;4968417;28;45401;-86
2022/08/01 06:19:04;;;;;;;;;1.00;1.00;;;;;23.34;72.25;101058.19;4969468;28;45388;-86
2022/08/01 06:21:29;;;;;;;;;1.67;1.33;;;;;23.42;72.56;101077.81;4967207;28;47202;-86
2022/08/01 06:23:55;;;;;;;;;2.00;2.00;;;;;23.45;72.36;101082.25;4972792;28;44772;-86
2022/08/01 06:26:21;;;;;;;;;3.67;3.67;;;;;23.45;72.32;101072.31;4972282;28;45360;-85
2022/08/01 06:28:46;;;;;;;;;0.00;0.00;;;;;23.48;71.78;101069.47;4974886;28;45370;-85
2022/08/01 06:31:13;;;;;;;;;2.00;2.00;;;;;23.48;72.21;101058.59;4974630;28;46999;-84
2022/08/01 06:33:39;;;;;;;;;3.00;3.00;;;;;23.54;72.33;101068.38;4976039;28;45297;-85
2022/08/01 06:36:09;;;;;;;;;8.00;7.33;;;;;23.57;71.85;101073.69;4973875;28;45417;-85
2022/08/01 06:38:48;;;;;;;;;4.67;4.67;;;;;23.45;71.66;101055.09;4975211;28;45454;-86
2022/08/01 06:41:16;;;;;;;;;3.00;3.00;;;;;23.63;71.52;101072.59;4992704;28;45412;-86
2022/08/01 06:43:42;;;;;;;;;2.00;2.00;;;;;23.53;71.46;101078.34;4975393;28;44753;-86
2022/08/01 06:46:09;;;;;;;;;2.33;2.33;;;;;23.17;71.48;101026.22;4976709;28;44866;-86
2022/08/01 06:48:42;;;;;;;;;2.00;2.00;;;;;23.34;71.40;101053.66;4976772;28;45409;-85
2022/08/01 06:51:08;;;;;;;;;2.33;2.33;;;;;23.24;71.66;101041.31;4976148;28;46218;-86
2022/08/01 06:53:40;;;;;;;;;3.00;3.00;;;;;23.39;71.08;101063.44;4994225;28;45534;-85
2022/08/01 06:56:08;;;;;;;;;1.50;1.50;;;;;23.29;71.26;101054.72;4976382;28;45490;-85
2022/08/01 06:58:51;;;;;;;;;4.00;2.25;;;;;23.47;71.46;101053.22;4976578;28;44906;-85
2022/08/01 07:01:22;;;;;;;;;4.00;3.00;;;;;23.77;70.88;101059.44;4993823;28;45256;-86
2022/08/01 07:03:50;;;;;;;;;2.00;2.00;;;;;23.90;70.34;101066.22;4993657;28;45392;-85
2022/08/01 07:06:18;;;;;;;;;3.00;3.00;;;;;23.76;69.79;101031.38;4976563;28;45551;-85
2022/08/01 07:08:55;;;;;;;;;3.33;3.33;;;;;23.98;69.60;101071.38;4994023;28;44981;-85
2022/08/01 07:11:56;;;;;;;;;2.00;2.00;;;;;24.06;69.45;101074.69;4977526;28;47814;-86
2022/08/01 07:15:26;;;;;;;;;;;;;;;;;;;;;
2022/08/01 07:24:04;;;;;;;;;3.75;3.75;;;;;24.36;67.94;101086.25;5211441;22;46933;-85
2022/08/01 07:26:33;;;;;;;;;4.33;3.00;;;;;24.05;67.87;101077.47;4970768;28;45505;-85
2022/08/01 07:29:02;;;;;;;;;3.67;3.67;;;;;23.73;68.63;101049.59;4975823;28;45329;-86
2022/08/01 07:32:24;;;;;;;;;4.00;3.33;;;;;23.80;68.75;101070.19;4990695;28;45413;-86
2022/08/01 07:35:17;;;;;;;;;4.67;4.67;;;;;23.78;69.33;101084.78;4964534;28;45412;-85
2022/08/01 07:37:48;;;;;;;;;4.33;4.33;;;;;23.67;70.77;101088.75;4972185;28;45392;-86
2022/08/01 07:40:27;;;;;;;;;4.00;4.00;;;;;23.57;70.46;101092.69;4971971;28;44836;-86
2022/08/01 07:43:31;;;;;;;;;4.33;4.33;;;;;23.38;70.31;101059.88;4972842;28;44970;-85
2022/08/01 07:56:20;;;;;;;;;5.00;3.67;;;;;23.96;69.33;101114.00;4930366;28;45421;-85
2022/08/01 07:58:53;;;;;;;;;4.33;4.33;;;;;23.90;69.05;101087.06;4988195;28;47358;-85
2022/08/01 08:01:26;;;;;;;;;4.75;4.75;;;;;24.10;68.79;101106.25;4972653;28;45520;-85
2022/08/01 08:04:46;;;;;;;;;4.00;4.00;;;;;24.21;68.44;101108.56;4971630;28;45488;-86
2022/08/01 08:52:59;;;;;;;;;3.00;3.00;;;;;26.33;58.21;101083.53;4929478;28;45445;-86
2022/08/01 08:55:42;;;;;;;;;5.67;4.67;;;;;26.49;57.77;101050.97;4921087;28;45581;-86
2022/08/01 08:58:18;;;;;;;;;6.00;4.00;;;;;26.87;56.40;101085.59;4921118;29;45378;-84
2022/08/01 09:00:50;;;;;;;;;3.67;3.67;;;;;26.69;55.79;101040.97;4937876;28;45081;-84
2022/08/01 09:03:31;;;;;;;;;4.33;4.33;;;;;26.93;55.56;101053.41;4915412;28;45367;-84
2022/08/01 09:06:12;;;;;;;;;2.33;2.33;;;;;27.43;54.79;101084.66;4917427;29;44987;-84
2022/08/01 09:08:53;;;;;;;;;3.00;3.00;;;;;27.62;53.89;101051.78;4918013;29;44838;-84
2022/08/01 09:11:34;;;;;;;;;5.00;4.00;;;;;28.15;53.24;101090.06;4901963;29;45457;-84
2022/08/01 09:14:09;;;;;;;;;3.33;3.33;;;;;28.27;52.01;101090.25;4902134;28;45344;-85
2022/08/01 09:17:08;;;;;;;;;4.00;4.00;;;;;28.21;51.91;101097.94;4901750;28;45332;-84
2022/08/01 09:19:40;;;;;;;;;3.00;3.00;;;;;28.20;51.59;101090.69;4893391;29;44849;-83
2022/08/01 09:22:57;;;;;;;;;3.00;3.00;;;;;28.08;51.50;101089.50;4902592;28;44975;-84
2022/08/01 09:26:09;;;;;;;;;3.00;3.00;;;;;27.96;51.35;101096.50;4902506;28;45202;-85
2022/08/01 09:28:52;;;;;;;;;2.67;2.67;;;;;27.77;51.56;101101.13;4902925;29;44816;-84
2022/08/01 09:31:40;;;;;;;;;4.00;3.00;;;;;27.52;51.42;101080.56;4902203;28;45486;-84
2022/08/01 09:34:41;;;;;;;;;3.33;3.33;;;;;27.20;51.43;101088.50;4900339;29;45731;-84
2022/08/01 09:37:19;;;;;;;;;3.00;3.00;;;;;26.93;51.83;101094.38;4898660;29;45316;-85
2022/08/01 09:40:15;;;;;;;;;1.67;1.67;;;;;26.57;52.60;101085.19;4913959;29;45336;-85
2022/08/01 09:42:51;;;;;;;;;6.33;4.33;;;;;26.33;53.59;101082.66;4845730;29;45496;-86
2022/08/01 09:45:49;;;;;;;;;3.33;3.33;;;;;26.29;54.32;101097.38;4846484;29;45665;-85
2022/08/01 09:48:23;;;;;;;;;4.00;3.00;;;;;26.03;55.02;101083.06;4862061;29;45510;-84
2022/08/01 09:51:33;;;;;;;;;5.33;5.33;;;;;26.06;55.25;101104.75;4847973;29;44892;-86
2022/08/01 10:04:33;;;;;;;;;4.67;4.67;;;;;26.37;55.21;101097.91;3307241;26;45283;-84
2022/08/01 10:11:36;;;;;;;;;5.00;5.00;;;;;26.88;54.24;101099.16;4897853;29;45065;-85
2022/08/01 10:17:57;;;;;;;;;6.00;6.00;;;;;26.93;53.06;101069.78;4858488;29;45481;-87
2022/08/01 10:21:15;;;;;;;;;4.33;4.33;;;;;27.35;52.47;101106.00;4845438;29;45411;-85
2022/08/01 10:23:44;;;;;;;;;4.00;4.00;;;;;27.54;52.20;101079.50;4826655;29;46751;-86
2022/08/01 10:26:26;;;;;;;;;5.00;5.00;;;;;28.15;52.25;101109.19;4843909;29;44972;-86
2022/08/01 10:32:55;;;;;;;;;;;;;;;;;;;;;
2022/08/01 10:36:18;;;;;;;;;4.33;4.33;;;;;28.59;49.08;101101.31;4974262;28;75511;-85
2022/08/01 10:38:45;;;;;;;;;5.00;5.00;;;;;28.23;48.74;101083.19;4974916;28;44806;-85
2022/08/01 10:41:15;;;;;;;;;4.33;4.33;;;;;27.82;48.89;101072.59;4990756;28;45462;-85
2022/08/01 10:44:09;;;;;;;;;3.67;2.00;;;;;27.78;49.54;101103.78;4974041;28;44882;-85
2022/08/01 10:54:27;;;;;;;;;;;;;;;;;;;;;
2022/08/01 10:57:07;;;;;;;;;4.33;4.33;;;;;28.55;48.63;101066.91;4786771;29;65086;-85
2022/08/01 11:03:05;;;;;;;;;5.00;5.00;;;;;28.84;47.74;101095.34;4822935;29;45656;-85
2022/08/01 11:05:57;;;;;;;;;7.00;6.67;;;;;28.56;47.97;101112.47;4851234;29;44953;-84
2022/08/01 11:08:44;;;;;;;;;;;;;;;;;;;;;
2022/08/01 11:11:36;;;;;;;;;7.00;4.67;;;;;27.78;49.68;101061.94;4874077;29;74696;-84
2022/08/01 11:14:43;;;;;;;;;5.00;5.00;;;;;27.94;49.00;101101.19;4879077;29;46070;-85
2022/08/01 11:17:58;;;;;;;;;;;;;;;;;;;;;
2022/08/01 11:21:22;;;;;;;;;;;;;;;;;;;;;
2022/08/01 11:23:59;;;;;;;;;4.33;4.33;;;;;27.60;49.27;101089.25;4862552;29;45281;-85
2022/08/01 11:26:59;;;;;;;;;3.33;3.33;;;;;27.35;49.72;101092.34;4845027;29;44921;-84
2022/08/01 11:30:29;;;;;;;;;2.67;2.67;;;;;27.08;50.56;101080.91;4877179;29;45487;-84
2022/08/01 11:39:37;;;;;;;;;5.67;5.67;;;;;27.39;50.00;101065.75;4973057;28;44737;-86
2022/08/01 11:42:27;;;;;;;;;5.67;5.67;;;;;27.32;50.01;101096.09;4974471;28;45419;-86
2022/08/01 11:44:58;;;;;;;;;5.00;5.00;;;;;27.09;50.54;101083.56;4913778;28;44972;-85
2022/08/01 11:47:52;;;;;;;;;57.75;47.75;;;;;27.16;50.71;101084.16;4912830;28;47602;-84
2022/08/01 11:50:34;;;;;;;;;5.67;5.67;;;;;27.42;50.40;101080.13;4912798;28;44998;-86
2022/08/01 11:53:10;;;;;;;;;4.67;4.67;;;;;27.65;49.79;101089.00;4914225;29;45295;-85
2022/08/01 11:56:14;;;;;;;;;5.67;5.67;;;;;27.44;48.81;101055.47;4914859;29;45626;-84
2022/08/01 11:58:50;;;;;;;;;;;;;;;;;;;;;
2022/08/01 12:01:27;;;;;;;;;4.00;4.00;;;;;27.49;49.51;101042.44;4973595;28;71392;-85
2022/08/01 12:51:34;;;;;;;;;7.00;7.00;;;;;27.53;48.95;101061.38;5699987;23;47161;-83
2022/08/01 12:55:14;;;;;;;;;4.33;4.33;;;;;27.43;47.95;101037.31;4867588;29;45208;-85
2022/08/01 12:58:21;;;;;;;;;7.00;7.00;;;;;27.83;48.58;101068.00;4876242;29;45630;-85
2022/08/01 13:00:50;;;;;;;;;7.33;6.00;;;;;27.86;47.66;101035.06;4874865;29;44845;-87
2022/08/01 13:03:25;;;;;;;;;4.33;4.33;;;;;28.06;47.65;101043.09;4874459;29;45339;-85
2022/08/01 13:06:44;;;;;;;;;6.33;6.33;;;;;28.28;47.07;101064.69;4858317;29;45558;-85
2022/08/01 13:09:23;;;;;;;;;7.67;7.00;;;;;28.29;47.04;101021.81;4874795;29;44866;-85
2022/08/01 13:11:59;;;;;;;;;;;;;;;;;;;;;
2022/08/01 13:14:31;;;;;;;;;5.67;5.67;;;;;28.77;46.33;101049.25;4913553;29;65326;-86
2022/08/01 13:17:38;;;;;;;;;6.00;5.67;;;;;28.82;45.81;101025.22;4914770;29;45488;-84
2022/08/01 13:27:48;;;;;;;;;4.67;4.67;;;;;29.42;44.81;100997.94;4799036;29;44936;-84
2022/08/01 13:33:12;;;;;;;;;3.33;3.33;;;;;29.56;42.02;101015.41;4838864;29;45394;-84
2022/08/01 13:35:48;;;;;;;;;;;;;;;;;;;;;
2022/08/01 13:39:39;;;;;;;;;2.00;2.00;;;;;29.69;39.89;101050.22;4838924;29;65455;-83
2022/08/01 13:45:03;;;;;;;;;1.75;1.75;;;;;29.71;37.68;101018.13;4804125;29;45466;-84
2022/08/01 13:47:41;;;;;;;;;2.00;2.00;;;;;29.78;37.12;101042.44;4863337;29;45280;-85
2022/08/01 13:50:38;;;;;;;;;1.00;1.00;;;;;29.74;38.05;101032.63;4846480;29;44976;-85
2022/08/01 13:53:17;;;;;;;;;3.00;3.00;;;;;29.81;39.13;101037.59;4859197;29;45743;-84
2022/08/01 13:56:27;;;;;;;;;;;;;;;;;;;;;
2022/08/01 13:59:08;;;;;;;;;2.00;2.00;;;;;30.28;39.00;101019.16;4895531;29;69530;-83
2022/08/01 14:01:45;;;;;;;;;2.33;2.33;;;;;30.85;38.53;101008.09;4911264;29;45501;-84
2022/08/01 14:04:10;;;;;;;;;2.00;2.00;;;;;32.09;37.40;101015.16;4881300;29;47285;-84
2022/08/01 14:06:45;;;;;;;;;1.33;1.33;;;;;34.07;34.98;100999.19;4879885;29;45419;-83
2022/08/01 14:09:19;;;;;;;;;1.00;1.00;;;;;35.23;32.06;101018.19;4881112;29;45380;-84
2022/08/01 14:12:36;;;;;;;;;;;;;;;;;;;;;
2022/08/01 14:16:08;;;;;;;;;;;;;;;;;;;;;
2022/08/01 14:19:16;;;;;;;;;2.00;2.00;;;;;34.19;31.37;100996.47;4800561;29;72074;-85
2022/08/01 14:21:43;;;;;;;;;2.00;2.00;;;;;33.19;31.97;101007.97;4793073;29;46012;-82
2022/08/01 14:24:18;;;;;;;;;3.00;3.00;;;;;32.22;33.64;101006.03;4806211;29;45089;-83
2022/08/01 14:27:19;;;;;;;;;3.00;3.00;;;;;31.46;35.04;101026.94;4789858;29;47089;-83
2022/08/01 14:30:02;;;;;;;;;3.00;3.00;;;;;30.54;36.42;101019.34;4804330;29;45511;-82
2022/08/01 14:32:35;;;;;;;;;3.67;3.33;;;;;29.88;37.32;101013.44;4845924;29;45478;-84
2022/08/01 14:37:56;;;;;;;;;3.33;3.33;;;;;29.23;38.84;101002.78;4871959;29;46002;-83
2022/08/01 14:40:40;;;;;;;;;3.00;3.00;;;;;29.20;39.38;101017.53;4876850;29;45545;-82
2022/08/01 14:43:09;;;;;;;;;3.00;3.00;;;;;29.01;39.69;101008.63;4875473;29;45480;-84
2022/08/01 14:45:37;;;;;;;;;1.00;1.00;;;;;28.96;40.16;101003.41;4876648;29;45422;-83
2022/08/01 14:48:08;;;;;;;;;3.00;3.00;;;;;28.99;39.98;101032.47;4876646;29;45532;-82
2022/08/01 14:51:22;;;;;;;;;3.33;3.33;;;;;28.89;40.48;101026.66;4879043;29;45498;-83
2022/08/01 14:53:53;;;;;;;;;5.33;4.33;;;;;28.70;40.99;101004.91;4881771;29;45501;-83
2022/08/01 14:56:45;;;;;;;;;2.33;2.33;;;;;28.76;40.76;101014.63;4913601;28;44850;-82
2022/08/01 14:59:11;;;;;;;;;3.00;3.00;;;;;28.80;41.00;101016.22;4896792;29;46843;-83
2022/08/01 15:01:36;;;;;;;;;5.33;4.33;;;;;28.73;40.95;101015.69;4898735;29;45448;-83
2022/08/01 15:04:05;;;;;;;;;4.33;3.00;;;;;28.77;41.03;101028.25;4897693;29;44800;-83
2022/08/01 15:06:32;;;;;;;;;2.33;2.33;;;;;28.66;41.13;100995.13;4912051;29;45483;-82
2022/08/01 15:09:01;;;;;;;;;2.67;2.67;;;;;28.68;41.29;100990.44;4914695;29;45511;-83
2022/08/01 15:11:29;;;;;;;;;4.67;4.67;;;;;28.77;41.30;100989.03;4913423;28;44885;-84
2022/08/01 15:16:39;;;;;;;;;3.33;3.33;;;;;28.97;40.66;101010.66;4913886;28;45443;-84
2022/08/01 15:19:05;;;;;;;;;3.00;3.00;;;;;29.03;40.89;101025.84;4898481;29;46822;-83
2022/08/01 15:21:40;;;;;;;;;2.00;2.00;;;;;29.02;41.22;101021.34;4913322;29;44893;-83